sensor_id;sensor_type;location;lat;lon;timestamp;P1;durP1;ratioP1;P2;durP2;ratioP2
21122;SDS011;10719;48.130;11.630;2024-01-07T00:01:15;18.47;;;7.73;;
21122;SDS011;10719;48.130;11.630;2024-01-07T00:03:40;17.60;;;7.50;;
21122;SDS011;10719;48.130;11.630;2024-01-07T00:06:12;20.13;;;7.53;;
21122;SDS011;10719;48.130;11.630;2024-01-07T00:08:38;15.87;;;6.90;;
21122;SDS011;10719;48.130;11.630;2024-01-07T00:11:04;19.50;;;7.07;;
21122;SDS011;10719;48.130;11.630;2024-01-07T00:13:30;18.53;;;8.00;;
21122;SDS011;10719;48.130;11.630;2024-01-07T00:15:56;16.87;;;7.90;;
21122;SDS011;10719;48.130;11.630;2024-01-07T00:18:22;20.83;;;8.13;;
21122;SDS011;10719;48.130;11.630;2024-01-07T00:20:49;18.70;;;8.37;;
21122;SDS011;10719;48.130;11.630;2024-01-07T00:23:15;18.73;;;8.37;;
21122;SDS011;10719;48.130;11.630;2024-01-07T00:25:41;16.37;;;7.23;;
21122;SDS011;10719;48.130;11.630;2024-01-07T00:28:08;19.40;;;8.83;;
21122;SDS011;10719;48.130;11.630;2024-01-07T00:30:35;17.97;;;7.13;;
21122;SDS011;10719;48.130;11.630;2024-01-07T00:33:01;17.80;;;7.77;;
21122;SDS011;10719;48.130;11.630;2024-01-07T00:35:27;18.00;;;8.47;;
21122;SDS011;10719;48.130;11.630;2024-01-07T00:37:53;21.83;;;8.87;;
21122;SDS011;10719;48.130;11.630;2024-01-07T00:40:24;18.77;;;8.20;;
21122;SDS011;10719;48.130;11.630;2024-01-07T00:42:51;15.53;;;6.73;;
21122;SDS011;10719;48.130;11.630;2024-01-07T00:45:17;20.53;;;8.80;;
21122;SDS011;10719;48.130;11.630;2024-01-07T00:47:43;17.23;;;7.73;;
21122;SDS011;10719;48.130;11.630;2024-01-07T00:50:10;16.80;;;8.00;;
21122;SDS011;10719;48.130;11.630;2024-01-07T00:52:35;18.97;;;8.23;;
21122;SDS011;10719;48.130;11.630;2024-01-07T00:55:07;17.33;;;8.03;;
21122;SDS011;10719;48.130;11.630;2024-01-07T00:57:34;20.13;;;8.50;;
21122;SDS011;10719;48.130;11.630;2024-01-07T01:00:04;19.00;;;7.97;;
21122;SDS011;10719;48.130;11.630;2024-01-07T01:02:32;18.57;;;8.40;;
21122;SDS011;10719;48.130;11.630;2024-01-07T01:05:01;17.50;;;7.87;;
21122;SDS011;10719;48.130;11.630;2024-01-07T01:07:29;16.20;;;7.67;;
21122;SDS011;10719;48.130;11.630;2024-01-07T01:09:55;17.50;;;7.63;;
21122;SDS011;10719;48.130;11.630;2024-01-07T01:12:23;18.20;;;7.77;;
21122;SDS011;10719;48.130;11.630;2024-01-07T01:14:49;18.53;;;7.93;;
21122;SDS011;10719;48.130;11.630;2024-01-07T01:17:16;17.60;;;8.23;;
21122;SDS011;10719;48.130;11.630;2024-01-07T01:19:43;17.70;;;6.90;;
21122;SDS011;10719;48.130;11.630;2024-01-07T01:22:09;18.37;;;7.67;;
21122;SDS011;10719;48.130;11.630;2024-01-07T01:24:35;17.40;;;7.63;;
21122;SDS011;10719;48.130;11.630;2024-01-07T01:27:01;17.80;;;7.53;;
21122;SDS011;10719;48.130;11.630;2024-01-07T01:29:28;18.07;;;7.93;;
21122;SDS011;10719;48.130;11.630;2024-01-07T01:31:55;16.47;;;7.63;;
21122;SDS011;10719;48.130;11.630;2024-01-07T01:34:22;16.93;;;6.83;;
21122;SDS011;10719;48.130;11.630;2024-01-07T01:36:48;18.73;;;8.00;;
21122;SDS011;10719;48.130;11.630;2024-01-07T01:39:15;16.00;;;7.03;;
21122;SDS011;10719;48.130;11.630;2024-01-07T01:41:41;17.97;;;7.67;;
21122;SDS011;10719;48.130;11.630;2024-01-07T01:44:07;16.70;;;7.60;;
21122;SDS011;10719;48.130;11.630;2024-01-07T01:46:34;16.27;;;7.13;;
21122;SDS011;10719;48.130;11.630;2024-01-07T01:49:00;14.40;;;6.70;;
21122;SDS011;10719;48.130;11.630;2024-01-07T01:51:26;18.03;;;7.57;;
21122;SDS011;10719;48.130;11.630;2024-01-07T01:53:52;16.83;;;6.37;;
21122;SDS011;10719;48.130;11.630;2024-01-07T01:56:23;17.00;;;7.13;;
21122;SDS011;10719;48.130;11.630;2024-01-07T01:58:53;15.23;;;6.87;;
21122;SDS011;10719;48.130;11.630;2024-01-07T02:01:18;17.03;;;7.30;;
21122;SDS011;10719;48.130;11.630;2024-01-07T02:03:45;15.57;;;6.00;;
21122;SDS011;10719;48.130;11.630;2024-01-07T02:06:11;15.70;;;6.50;;
21122;SDS011;10719;48.130;11.630;2024-01-07T02:08:38;16.73;;;6.43;;
21122;SDS011;10719;48.130;11.630;2024-01-07T02:11:17;13.67;;;6.23;;
21122;SDS011;10719;48.130;11.630;2024-01-07T02:13:43;15.47;;;5.90;;
21122;SDS011;10719;48.130;11.630;2024-01-07T02:16:10;15.90;;;6.17;;
21122;SDS011;10719;48.130;11.630;2024-01-07T02:18:36;16.73;;;6.60;;
21122;SDS011;10719;48.130;11.630;2024-01-07T02:21:04;15.93;;;6.70;;
21122;SDS011;10719;48.130;11.630;2024-01-07T02:23:31;15.43;;;6.47;;
21122;SDS011;10719;48.130;11.630;2024-01-07T02:25:57;15.10;;;6.23;;
21122;SDS011;10719;48.130;11.630;2024-01-07T02:28:23;16.33;;;6.57;;
21122;SDS011;10719;48.130;11.630;2024-01-07T02:30:49;14.07;;;6.17;;
21122;SDS011;10719;48.130;11.630;2024-01-07T02:33:15;15.27;;;6.50;;
21122;SDS011;10719;48.130;11.630;2024-01-07T02:35:50;13.60;;;5.73;;
21122;SDS011;10719;48.130;11.630;2024-01-07T02:38:16;14.87;;;6.33;;
21122;SDS011;10719;48.130;11.630;2024-01-07T02:40:42;16.30;;;6.70;;
21122;SDS011;10719;48.130;11.630;2024-01-07T02:43:09;15.53;;;6.17;;
21122;SDS011;10719;48.130;11.630;2024-01-07T02:45:36;13.37;;;5.23;;
21122;SDS011;10719;48.130;11.630;2024-01-07T02:48:02;13.73;;;5.83;;
21122;SDS011;10719;48.130;11.630;2024-01-07T02:50:29;13.90;;;6.27;;
21122;SDS011;10719;48.130;11.630;2024-01-07T02:52:55;13.83;;;5.97;;
21122;SDS011;10719;48.130;11.630;2024-01-07T02:55:20;14.47;;;5.90;;
21122;SDS011;10719;48.130;11.630;2024-01-07T02:57:46;15.17;;;5.73;;
21122;SDS011;10719;48.130;11.630;2024-01-07T03:00:12;15.23;;;6.20;;
21122;SDS011;10719;48.130;11.630;2024-01-07T03:02:38;14.47;;;5.90;;
21122;SDS011;10719;48.130;11.630;2024-01-07T03:05:04;13.23;;;5.53;;
21122;SDS011;10719;48.130;11.630;2024-01-07T03:07:30;14.63;;;5.60;;
21122;SDS011;10719;48.130;11.630;2024-01-07T03:09:56;14.63;;;5.43;;
21122;SDS011;10719;48.130;11.630;2024-01-07T03:12:22;13.77;;;6.13;;
21122;SDS011;10719;48.130;11.630;2024-01-07T03:14:49;15.15;;;6.40;;
21122;SDS011;10719;48.130;11.630;2024-01-07T03:17:16;16.63;;;6.53;;
21122;SDS011;10719;48.130;11.630;2024-01-07T03:19:43;14.03;;;5.57;;
21122;SDS011;10719;48.130;11.630;2024-01-07T03:22:09;14.83;;;6.27;;
21122;SDS011;10719;48.130;11.630;2024-01-07T03:24:35;13.73;;;5.50;;
21122;SDS011;10719;48.130;11.630;2024-01-07T03:27:00;14.73;;;5.60;;
21122;SDS011;10719;48.130;11.630;2024-01-07T03:29:26;14.73;;;6.53;;
21122;SDS011;10719;48.130;11.630;2024-01-07T03:31:52;14.10;;;5.60;;
21122;SDS011;10719;48.130;11.630;2024-01-07T03:34:19;13.00;;;5.30;;
21122;SDS011;10719;48.130;11.630;2024-01-07T03:36:45;14.27;;;5.63;;
21122;SDS011;10719;48.130;11.630;2024-01-07T03:39:11;14.53;;;6.07;;
21122;SDS011;10719;48.130;11.630;2024-01-07T03:41:38;15.10;;;6.57;;
21122;SDS011;10719;48.130;11.630;2024-01-07T03:44:05;13.80;;;5.63;;
21122;SDS011;10719;48.130;11.630;2024-01-07T03:46:32;14.67;;;6.27;;
21122;SDS011;10719;48.130;11.630;2024-01-07T03:48:58;15.20;;;6.20;;
21122;SDS011;10719;48.130;11.630;2024-01-07T03:51:24;13.03;;;5.47;;
21122;SDS011;10719;48.130;11.630;2024-01-07T03:53:50;13.37;;;5.63;;
21122;SDS011;10719;48.130;11.630;2024-01-07T03:56:16;14.57;;;5.50;;
21122;SDS011;10719;48.130;11.630;2024-01-07T03:58:43;13.90;;;5.43;;
21122;SDS011;10719;48.130;11.630;2024-01-07T04:01:15;13.33;;;5.07;;
21122;SDS011;10719;48.130;11.630;2024-01-07T04:03:43;12.23;;;5.10;;
21122;SDS011;10719;48.130;11.630;2024-01-07T04:06:10;13.87;;;5.63;;
21122;SDS011;10719;48.130;11.630;2024-01-07T04:08:37;12.43;;;4.93;;
21122;SDS011;10719;48.130;11.630;2024-01-07T04:11:04;13.57;;;5.40;;
21122;SDS011;10719;48.130;11.630;2024-01-07T04:13:31;12.73;;;5.10;;
21122;SDS011;10719;48.130;11.630;2024-01-07T04:15:57;14.27;;;5.43;;
21122;SDS011;10719;48.130;11.630;2024-01-07T04:18:23;12.37;;;5.43;;
21122;SDS011;10719;48.130;11.630;2024-01-07T04:20:49;13.93;;;5.73;;
21122;SDS011;10719;48.130;11.630;2024-01-07T04:23:15;14.20;;;6.10;;
21122;SDS011;10719;48.130;11.630;2024-01-07T04:25:41;14.53;;;6.33;;
21122;SDS011;10719;48.130;11.630;2024-01-07T04:28:07;13.83;;;5.57;;
21122;SDS011;10719;48.130;11.630;2024-01-07T04:30:35;14.37;;;5.67;;
21122;SDS011;10719;48.130;11.630;2024-01-07T04:33:01;12.70;;;5.33;;
21122;SDS011;10719;48.130;11.630;2024-01-07T04:35:26;13.17;;;5.17;;
21122;SDS011;10719;48.130;11.630;2024-01-07T04:37:52;16.13;;;6.80;;
21122;SDS011;10719;48.130;11.630;2024-01-07T04:40:19;12.57;;;5.70;;
21122;SDS011;10719;48.130;11.630;2024-01-07T04:42:45;14.33;;;5.33;;
21122;SDS011;10719;48.130;11.630;2024-01-07T04:45:11;14.30;;;5.23;;
21122;SDS011;10719;48.130;11.630;2024-01-07T04:47:37;15.67;;;5.80;;
21122;SDS011;10719;48.130;11.630;2024-01-07T04:50:03;14.57;;;5.70;;
21122;SDS011;10719;48.130;11.630;2024-01-07T04:52:29;12.60;;;5.43;;
21122;SDS011;10719;48.130;11.630;2024-01-07T04:54:55;11.63;;;4.50;;
21122;SDS011;10719;48.130;11.630;2024-01-07T04:57:22;11.90;;;5.07;;
21122;SDS011;10719;48.130;11.630;2024-01-07T04:59:48;12.60;;;5.47;;
21122;SDS011;10719;48.130;11.630;2024-01-07T05:02:16;13.57;;;5.27;;
21122;SDS011;10719;48.130;11.630;2024-01-07T05:04:43;11.77;;;5.20;;
21122;SDS011;10719;48.130;11.630;2024-01-07T05:07:10;15.37;;;6.33;;
21122;SDS011;10719;48.130;11.630;2024-01-07T05:09:36;13.43;;;5.83;;
21122;SDS011;10719;48.130;11.630;2024-01-07T05:12:02;13.97;;;6.10;;
21122;SDS011;10719;48.130;11.630;2024-01-07T05:14:28;14.43;;;5.70;;
21122;SDS011;10719;48.130;11.630;2024-01-07T05:16:54;13.50;;;5.53;;
21122;SDS011;10719;48.130;11.630;2024-01-07T05:19:20;13.70;;;5.43;;
21122;SDS011;10719;48.130;11.630;2024-01-07T05:21:46;13.17;;;5.00;;
21122;SDS011;10719;48.130;11.630;2024-01-07T05:24:12;13.47;;;5.47;;
21122;SDS011;10719;48.130;11.630;2024-01-07T05:26:39;14.33;;;5.23;;
21122;SDS011;10719;48.130;11.630;2024-01-07T05:29:07;14.73;;;5.70;;
21122;SDS011;10719;48.130;11.630;2024-01-07T05:31:32;14.87;;;5.53;;
21122;SDS011;10719;48.130;11.630;2024-01-07T05:33:58;13.17;;;5.63;;
21122;SDS011;10719;48.130;11.630;2024-01-07T05:36:24;15.00;;;5.53;;
21122;SDS011;10719;48.130;11.630;2024-01-07T05:38:51;12.83;;;5.23;;
21122;SDS011;10719;48.130;11.630;2024-01-07T05:41:16;14.13;;;5.50;;
21122;SDS011;10719;48.130;11.630;2024-01-07T05:43:42;12.63;;;5.00;;
21122;SDS011;10719;48.130;11.630;2024-01-07T05:46:08;13.60;;;6.27;;
21122;SDS011;10719;48.130;11.630;2024-01-07T05:48:42;16.30;;;6.60;;
21122;SDS011;10719;48.130;11.630;2024-01-07T05:51:09;14.47;;;5.57;;
21122;SDS011;10719;48.130;11.630;2024-01-07T05:53:36;15.23;;;6.20;;
21122;SDS011;10719;48.130;11.630;2024-01-07T05:56:02;14.30;;;5.93;;
21122;SDS011;10719;48.130;11.630;2024-01-07T05:58:29;15.57;;;6.13;;
21122;SDS011;10719;48.130;11.630;2024-01-07T06:00:55;14.00;;;5.50;;
21122;SDS011;10719;48.130;11.630;2024-01-07T06:03:21;14.50;;;5.80;;
21122;SDS011;10719;48.130;11.630;2024-01-07T06:05:47;18.07;;;7.37;;
21122;SDS011;10719;48.130;11.630;2024-01-07T06:08:13;15.83;;;6.13;;
21122;SDS011;10719;48.130;11.630;2024-01-07T06:10:40;16.47;;;6.03;;
21122;SDS011;10719;48.130;11.630;2024-01-07T06:13:06;13.53;;;5.47;;
21122;SDS011;10719;48.130;11.630;2024-01-07T06:15:32;14.33;;;6.33;;
21122;SDS011;10719;48.130;11.630;2024-01-07T06:17:58;14.50;;;6.20;;
21122;SDS011;10719;48.130;11.630;2024-01-07T06:20:24;15.63;;;6.13;;
21122;SDS011;10719;48.130;11.630;2024-01-07T06:22:50;14.67;;;5.83;;
21122;SDS011;10719;48.130;11.630;2024-01-07T06:25:15;13.53;;;5.43;;
21122;SDS011;10719;48.130;11.630;2024-01-07T06:27:41;16.87;;;6.77;;
21122;SDS011;10719;48.130;11.630;2024-01-07T06:30:07;15.77;;;6.37;;
21122;SDS011;10719;48.130;11.630;2024-01-07T06:32:33;15.30;;;6.17;;
21122;SDS011;10719;48.130;11.630;2024-01-07T06:34:59;15.97;;;6.57;;
21122;SDS011;10719;48.130;11.630;2024-01-07T06:37:25;14.93;;;6.13;;
21122;SDS011;10719;48.130;11.630;2024-01-07T06:39:54;17.10;;;6.63;;
21122;SDS011;10719;48.130;11.630;2024-01-07T06:42:19;15.20;;;5.87;;
21122;SDS011;10719;48.130;11.630;2024-01-07T06:44:45;13.77;;;5.90;;
21122;SDS011;10719;48.130;11.630;2024-01-07T06:47:11;14.60;;;6.10;;
21122;SDS011;10719;48.130;11.630;2024-01-07T06:49:36;14.40;;;5.53;;
21122;SDS011;10719;48.130;11.630;2024-01-07T06:52:02;14.00;;;5.50;;
21122;SDS011;10719;48.130;11.630;2024-01-07T06:54:28;14.33;;;6.17;;
21122;SDS011;10719;48.130;11.630;2024-01-07T06:56:53;15.20;;;5.87;;
21122;SDS011;10719;48.130;11.630;2024-01-07T06:59:19;17.93;;;5.77;;
21122;SDS011;10719;48.130;11.630;2024-01-07T07:01:45;16.67;;;6.17;;
21122;SDS011;10719;48.130;11.630;2024-01-07T07:04:10;15.07;;;5.40;;
21122;SDS011;10719;48.130;11.630;2024-01-07T07:06:36;13.03;;;5.43;;
21122;SDS011;10719;48.130;11.630;2024-01-07T07:09:02;15.50;;;5.67;;
21122;SDS011;10719;48.130;11.630;2024-01-07T07:11:27;14.47;;;5.17;;
21122;SDS011;10719;48.130;11.630;2024-01-07T07:13:53;16.17;;;6.13;;
21122;SDS011;10719;48.130;11.630;2024-01-07T07:16:18;13.53;;;5.47;;
21122;SDS011;10719;48.130;11.630;2024-01-07T07:18:44;12.17;;;5.30;;
21122;SDS011;10719;48.130;11.630;2024-01-07T07:21:09;13.63;;;5.27;;
21122;SDS011;10719;48.130;11.630;2024-01-07T07:23:35;12.47;;;5.43;;
21122;SDS011;10719;48.130;11.630;2024-01-07T07:26:00;14.77;;;5.27;;
21122;SDS011;10719;48.130;11.630;2024-01-07T07:28:26;13.67;;;5.40;;
21122;SDS011;10719;48.130;11.630;2024-01-07T07:30:52;13.50;;;5.30;;
21122;SDS011;10719;48.130;11.630;2024-01-07T07:33:18;14.67;;;5.83;;
21122;SDS011;10719;48.130;11.630;2024-01-07T07:35:44;16.10;;;6.07;;
21122;SDS011;10719;48.130;11.630;2024-01-07T07:38:09;13.13;;;5.53;;
21122;SDS011;10719;48.130;11.630;2024-01-07T07:40:35;12.67;;;5.27;;
21122;SDS011;10719;48.130;11.630;2024-01-07T07:43:00;14.23;;;5.53;;
21122;SDS011;10719;48.130;11.630;2024-01-07T07:45:26;14.23;;;5.73;;
21122;SDS011;10719;48.130;11.630;2024-01-07T07:47:52;13.90;;;5.80;;
21122;SDS011;10719;48.130;11.630;2024-01-07T07:50:17;12.33;;;4.70;;
21122;SDS011;10719;48.130;11.630;2024-01-07T07:52:43;12.37;;;4.93;;
21122;SDS011;10719;48.130;11.630;2024-01-07T07:55:09;14.00;;;5.63;;
21122;SDS011;10719;48.130;11.630;2024-01-07T07:57:35;13.47;;;4.73;;
21122;SDS011;10719;48.130;11.630;2024-01-07T08:00:00;15.30;;;5.43;;
21122;SDS011;10719;48.130;11.630;2024-01-07T08:02:27;12.20;;;5.20;;
21122;SDS011;10719;48.130;11.630;2024-01-07T08:04:52;12.80;;;4.67;;
21122;SDS011;10719;48.130;11.630;2024-01-07T08:07:18;12.30;;;4.50;;
21122;SDS011;10719;48.130;11.630;2024-01-07T08:09:43;13.00;;;5.23;;
21122;SDS011;10719;48.130;11.630;2024-01-07T08:12:09;11.17;;;4.53;;
21122;SDS011;10719;48.130;11.630;2024-01-07T08:14:37;12.67;;;4.87;;
21122;SDS011;10719;48.130;11.630;2024-01-07T08:17:06;12.80;;;5.07;;
21122;SDS011;10719;48.130;11.630;2024-01-07T08:19:32;14.43;;;5.63;;
21122;SDS011;10719;48.130;11.630;2024-01-07T08:21:57;14.10;;;5.90;;
21122;SDS011;10719;48.130;11.630;2024-01-07T08:24:23;14.17;;;5.43;;
21122;SDS011;10719;48.130;11.630;2024-01-07T08:26:49;13.73;;;5.63;;
21122;SDS011;10719;48.130;11.630;2024-01-07T08:29:14;14.63;;;6.17;;
21122;SDS011;10719;48.130;11.630;2024-01-07T08:31:40;14.70;;;5.33;;
21122;SDS011;10719;48.130;11.630;2024-01-07T08:34:07;14.20;;;5.70;;
21122;SDS011;10719;48.130;11.630;2024-01-07T08:36:32;13.87;;;5.30;;
21122;SDS011;10719;48.130;11.630;2024-01-07T08:38:58;11.27;;;4.47;;
21122;SDS011;10719;48.130;11.630;2024-01-07T08:41:25;15.70;;;5.43;;
21122;SDS011;10719;48.130;11.630;2024-01-07T08:43:50;12.20;;;5.20;;
21122;SDS011;10719;48.130;11.630;2024-01-07T08:46:16;13.40;;;4.67;;
21122;SDS011;10719;48.130;11.630;2024-01-07T08:48:41;13.77;;;4.83;;
21122;SDS011;10719;48.130;11.630;2024-01-07T08:51:07;11.67;;;4.30;;
21122;SDS011;10719;48.130;11.630;2024-01-07T08:53:33;12.87;;;5.00;;
21122;SDS011;10719;48.130;11.630;2024-01-07T08:55:58;12.73;;;5.00;;
21122;SDS011;10719;48.130;11.630;2024-01-07T08:58:24;14.10;;;5.43;;
21122;SDS011;10719;48.130;11.630;2024-01-07T09:00:50;15.63;;;5.73;;
21122;SDS011;10719;48.130;11.630;2024-01-07T09:03:15;17.07;;;5.90;;
21122;SDS011;10719;48.130;11.630;2024-01-07T09:05:41;14.40;;;5.93;;
21122;SDS011;10719;48.130;11.630;2024-01-07T09:08:07;15.83;;;5.57;;
21122;SDS011;10719;48.130;11.630;2024-01-07T09:10:32;12.97;;;5.30;;
21122;SDS011;10719;48.130;11.630;2024-01-07T09:12:58;14.07;;;5.37;;
21122;SDS011;10719;48.130;11.630;2024-01-07T09:15:25;15.97;;;5.93;;
21122;SDS011;10719;48.130;11.630;2024-01-07T09:17:51;13.80;;;5.57;;
21122;SDS011;10719;48.130;11.630;2024-01-07T09:20:16;13.53;;;5.40;;
21122;SDS011;10719;48.130;11.630;2024-01-07T09:22:42;16.63;;;6.10;;
21122;SDS011;10719;48.130;11.630;2024-01-07T09:25:08;12.43;;;5.37;;
21122;SDS011;10719;48.130;11.630;2024-01-07T09:27:34;15.07;;;5.53;;
21122;SDS011;10719;48.130;11.630;2024-01-07T09:30:00;14.83;;;5.90;;
21122;SDS011;10719;48.130;11.630;2024-01-07T09:32:26;14.47;;;6.00;;
21122;SDS011;10719;48.130;11.630;2024-01-07T09:34:52;15.73;;;5.50;;
21122;SDS011;10719;48.130;11.630;2024-01-07T09:37:18;17.63;;;5.53;;
21122;SDS011;10719;48.130;11.630;2024-01-07T09:39:44;14.27;;;5.27;;
21122;SDS011;10719;48.130;11.630;2024-01-07T09:42:14;14.33;;;5.90;;
21122;SDS011;10719;48.130;11.630;2024-01-07T09:44:41;16.80;;;5.83;;
21122;SDS011;10719;48.130;11.630;2024-01-07T09:47:10;15.03;;;5.57;;
21122;SDS011;10719;48.130;11.630;2024-01-07T09:49:40;14.50;;;6.30;;
21122;SDS011;10719;48.130;11.630;2024-01-07T09:52:06;17.03;;;6.47;;
21122;SDS011;10719;48.130;11.630;2024-01-07T09:54:33;14.30;;;5.70;;
21122;SDS011;10719;48.130;11.630;2024-01-07T09:57:03;16.53;;;6.83;;
21122;SDS011;10719;48.130;11.630;2024-01-07T09:59:31;15.33;;;5.33;;
21122;SDS011;10719;48.130;11.630;2024-01-07T10:01:58;15.40;;;6.13;;
21122;SDS011;10719;48.130;11.630;2024-01-07T10:04:24;15.83;;;6.07;;
21122;SDS011;10719;48.130;11.630;2024-01-07T10:06:50;15.80;;;6.30;;
21122;SDS011;10719;48.130;11.630;2024-01-07T10:09:19;19.40;;;7.10;;
21122;SDS011;10719;48.130;11.630;2024-01-07T10:11:46;15.40;;;7.00;;
21122;SDS011;10719;48.130;11.630;2024-01-07T10:14:12;16.43;;;6.67;;
21122;SDS011;10719;48.130;11.630;2024-01-07T10:16:38;14.07;;;5.90;;
21122;SDS011;10719;48.130;11.630;2024-01-07T10:19:04;17.00;;;6.57;;
21122;SDS011;10719;48.130;11.630;2024-01-07T10:21:32;15.63;;;5.80;;
21122;SDS011;10719;48.130;11.630;2024-01-07T10:24:10;14.60;;;6.20;;
21122;SDS011;10719;48.130;11.630;2024-01-07T10:26:37;14.55;;;6.18;;
21122;SDS011;10719;48.130;11.630;2024-01-07T10:29:03;14.73;;;5.83;;
21122;SDS011;10719;48.130;11.630;2024-01-07T10:31:29;15.23;;;5.87;;
21122;SDS011;10719;48.130;11.630;2024-01-07T10:33:56;14.97;;;5.93;;
21122;SDS011;10719;48.130;11.630;2024-01-07T10:36:22;13.70;;;5.37;;
21122;SDS011;10719;48.130;11.630;2024-01-07T10:38:49;14.53;;;6.27;;
21122;SDS011;10719;48.130;11.630;2024-01-07T10:41:16;18.50;;;6.13;;
21122;SDS011;10719;48.130;11.630;2024-01-07T10:43:44;14.30;;;5.30;;
21122;SDS011;10719;48.130;11.630;2024-01-07T10:46:12;15.07;;;5.67;;
21122;SDS011;10719;48.130;11.630;2024-01-07T10:48:41;13.87;;;5.47;;
21122;SDS011;10719;48.130;11.630;2024-01-07T10:51:18;14.60;;;5.90;;
21122;SDS011;10719;48.130;11.630;2024-01-07T10:53:46;14.40;;;5.53;;
21122;SDS011;10719;48.130;11.630;2024-01-07T10:56:18;15.67;;;5.83;;
21122;SDS011;10719;48.130;11.630;2024-01-07T10:58:48;13.97;;;4.90;;
21122;SDS011;10719;48.130;11.630;2024-01-07T11:01:18;17.90;;;5.93;;
21122;SDS011;10719;48.130;11.630;2024-01-07T11:06:16;16.10;;;5.63;;
21122;SDS011;10719;48.130;11.630;2024-01-07T11:08:52;12.17;;;5.07;;
21122;SDS011;10719;48.130;11.630;2024-01-07T11:11:26;12.77;;;4.40;;
21122;SDS011;10719;48.130;11.630;2024-01-07T11:14:00;12.87;;;4.93;;
21122;SDS011;10719;48.130;11.630;2024-01-07T11:19:14;13.17;;;5.20;;
21122;SDS011;10719;48.130;11.630;2024-01-07T11:21:39;15.77;;;5.63;;
21122;SDS011;10719;48.130;11.630;2024-01-07T11:24:05;12.30;;;5.13;;
21122;SDS011;10719;48.130;11.630;2024-01-07T11:26:31;10.87;;;4.83;;
21122;SDS011;10719;48.130;11.630;2024-01-07T11:28:57;11.27;;;5.03;;
21122;SDS011;10719;48.130;11.630;2024-01-07T11:34:03;13.23;;;5.23;;
21122;SDS011;10719;48.130;11.630;2024-01-07T11:36:29;14.03;;;5.40;;
21122;SDS011;10719;48.130;11.630;2024-01-07T11:38:54;14.63;;;6.23;;
21122;SDS011;10719;48.130;11.630;2024-01-07T11:41:21;15.50;;;5.77;;
21122;SDS011;10719;48.130;11.630;2024-01-07T11:43:53;13.83;;;5.50;;
21122;SDS011;10719;48.130;11.630;2024-01-07T11:46:20;13.97;;;5.27;;
21122;SDS011;10719;48.130;11.630;2024-01-07T11:48:46;16.47;;;5.37;;
21122;SDS011;10719;48.130;11.630;2024-01-07T11:51:12;15.47;;;5.33;;
21122;SDS011;10719;48.130;11.630;2024-01-07T11:53:37;13.73;;;4.93;;
21122;SDS011;10719;48.130;11.630;2024-01-07T11:56:03;14.97;;;5.87;;
21122;SDS011;10719;48.130;11.630;2024-01-07T11:58:30;12.20;;;4.87;;
21122;SDS011;10719;48.130;11.630;2024-01-07T12:00:55;14.73;;;5.53;;
21122;SDS011;10719;48.130;11.630;2024-01-07T12:03:22;14.20;;;5.20;;
21122;SDS011;10719;48.130;11.630;2024-01-07T12:05:49;20.00;;;6.13;;
21122;SDS011;10719;48.130;11.630;2024-01-07T12:08:14;14.60;;;5.83;;
21122;SDS011;10719;48.130;11.630;2024-01-07T12:10:41;15.13;;;5.70;;
21122;SDS011;10719;48.130;11.630;2024-01-07T12:13:06;11.50;;;5.13;;
21122;SDS011;10719;48.130;11.630;2024-01-07T12:15:33;16.00;;;6.27;;
21122;SDS011;10719;48.130;11.630;2024-01-07T12:17:59;15.30;;;5.83;;
21122;SDS011;10719;48.130;11.630;2024-01-07T12:20:26;14.23;;;6.07;;
21122;SDS011;10719;48.130;11.630;2024-01-07T12:22:55;14.67;;;5.47;;
21122;SDS011;10719;48.130;11.630;2024-01-07T12:25:33;16.47;;;5.83;;
21122;SDS011;10719;48.130;11.630;2024-01-07T12:27:59;13.60;;;5.90;;
21122;SDS011;10719;48.130;11.630;2024-01-07T12:30:25;14.63;;;5.27;;
21122;SDS011;10719;48.130;11.630;2024-01-07T12:32:52;13.20;;;4.57;;
21122;SDS011;10719;48.130;11.630;2024-01-07T12:35:18;12.60;;;5.20;;
21122;SDS011;10719;48.130;11.630;2024-01-07T12:37:43;12.57;;;4.80;;
21122;SDS011;10719;48.130;11.630;2024-01-07T12:40:10;13.23;;;5.80;;
21122;SDS011;10719;48.130;11.630;2024-01-07T12:42:40;13.50;;;5.70;;
21122;SDS011;10719;48.130;11.630;2024-01-07T12:45:13;12.83;;;5.20;;
21122;SDS011;10719;48.130;11.630;2024-01-07T12:47:40;14.60;;;5.73;;
21122;SDS011;10719;48.130;11.630;2024-01-07T12:50:06;11.97;;;5.47;;
21122;SDS011;10719;48.130;11.630;2024-01-07T12:52:36;12.07;;;5.23;;
21122;SDS011;10719;48.130;11.630;2024-01-07T12:55:04;17.50;;;6.37;;
21122;SDS011;10719;48.130;11.630;2024-01-07T12:57:30;13.10;;;5.03;;
21122;SDS011;10719;48.130;11.630;2024-01-07T12:59:56;13.13;;;5.17;;
21122;SDS011;10719;48.130;11.630;2024-01-07T13:02:22;13.93;;;6.13;;
21122;SDS011;10719;48.130;11.630;2024-01-07T13:04:48;13.07;;;5.43;;
21122;SDS011;10719;48.130;11.630;2024-01-07T13:07:14;12.37;;;5.30;;
21122;SDS011;10719;48.130;11.630;2024-01-07T13:09:40;14.63;;;5.40;;
21122;SDS011;10719;48.130;11.630;2024-01-07T13:12:06;13.33;;;5.77;;
21122;SDS011;10719;48.130;11.630;2024-01-07T13:14:31;16.60;;;6.50;;
21122;SDS011;10719;48.130;11.630;2024-01-07T13:16:57;14.70;;;6.20;;
21122;SDS011;10719;48.130;11.630;2024-01-07T13:19:23;14.63;;;6.33;;
21122;SDS011;10719;48.130;11.630;2024-01-07T13:21:49;12.53;;;5.63;;
21122;SDS011;10719;48.130;11.630;2024-01-07T13:24:15;13.53;;;6.47;;
21122;SDS011;10719;48.130;11.630;2024-01-07T13:26:41;14.83;;;6.37;;
21122;SDS011;10719;48.130;11.630;2024-01-07T13:29:07;15.67;;;5.70;;
21122;SDS011;10719;48.130;11.630;2024-01-07T13:31:32;15.20;;;5.87;;
21122;SDS011;10719;48.130;11.630;2024-01-07T13:33:58;14.20;;;5.30;;
21122;SDS011;10719;48.130;11.630;2024-01-07T13:36:23;13.77;;;5.37;;
21122;SDS011;10719;48.130;11.630;2024-01-07T13:38:49;13.07;;;4.90;;
21122;SDS011;10719;48.130;11.630;2024-01-07T13:41:16;13.30;;;5.37;;
21122;SDS011;10719;48.130;11.630;2024-01-07T13:43:42;15.75;;;6.88;;
21122;SDS011;10719;48.130;11.630;2024-01-07T13:46:08;13.87;;;6.00;;
21122;SDS011;10719;48.130;11.630;2024-01-07T13:48:34;14.00;;;5.63;;
21122;SDS011;10719;48.130;11.630;2024-01-07T13:50:59;14.67;;;5.77;;
21122;SDS011;10719;48.130;11.630;2024-01-07T13:53:25;13.63;;;5.27;;
21122;SDS011;10719;48.130;11.630;2024-01-07T13:55:51;15.30;;;5.67;;
21122;SDS011;10719;48.130;11.630;2024-01-07T13:58:16;14.27;;;5.97;;
21122;SDS011;10719;48.130;11.630;2024-01-07T14:00:44;13.93;;;4.93;;
21122;SDS011;10719;48.130;11.630;2024-01-07T14:03:10;12.93;;;5.43;;
21122;SDS011;10719;48.130;11.630;2024-01-07T14:05:36;12.87;;;5.23;;
21122;SDS011;10719;48.130;11.630;2024-01-07T14:08:02;13.30;;;4.93;;
21122;SDS011;10719;48.130;11.630;2024-01-07T14:10:28;12.97;;;4.90;;
21122;SDS011;10719;48.130;11.630;2024-01-07T14:12:54;12.07;;;5.10;;
21122;SDS011;10719;48.130;11.630;2024-01-07T14:15:19;13.00;;;4.80;;
21122;SDS011;10719;48.130;11.630;2024-01-07T14:17:45;15.03;;;5.30;;
21122;SDS011;10719;48.130;11.630;2024-01-07T14:20:11;15.53;;;6.10;;
21122;SDS011;10719;48.130;11.630;2024-01-07T14:22:36;13.77;;;5.03;;
21122;SDS011;10719;48.130;11.630;2024-01-07T14:25:02;14.70;;;6.10;;